createdAt,value
2023-04-01T00:00:09.273Z,0
2023-04-01T00:01:09.878Z,0
2023-04-01T00:02:10.580Z,0
2023-04-01T00:03:11.733Z,0
2023-04-01T00:04:12.031Z,0
2023-04-01T00:05:12.697Z,0
2023-04-01T00:06:13.593Z,0
2023-04-01T00:07:14.085Z,0
2023-04-01T00:08:17.102Z,0
2023-04-01T00:09:16.456Z,0
2023-04-01T00:10:16.554Z,0
2023-04-01T00:11:17.521Z,0
2023-04-01T00:12:18.313Z,0
2023-04-01T00:13:18.806Z,0
2023-04-01T00:14:19.292Z,0
2023-04-01T00:15:20.005Z,0
2023-04-01T00:16:32.745Z,0
2023-04-01T00:18:22.342Z,0
2023-04-01T00:19:22.989Z,0
2023-04-01T00:20:23.729Z,0
2023-04-01T00:21:24.493Z,0
2023-04-01T00:22:24.794Z,0
2023-04-01T00:23:25.349Z,0
2023-04-01T00:24:25.906Z,0
2023-04-01T00:25:26.787Z,0
2023-04-01T00:26:26.744Z,0
2023-04-01T00:27:27.660Z,0
2023-04-01T00:28:27.963Z,0
2023-04-01T00:29:28.679Z,0
2023-04-01T00:30:28.877Z,0
2023-04-01T00:31:29.355Z,0
2023-04-01T00:32:29.778Z,0
2023-04-01T00:33:30.531Z,0
2023-04-01T00:34:31.030Z,0
2023-04-01T00:35:31.838Z,0
2023-04-01T00:36:32.435Z,0
2023-04-01T00:37:33.207Z,0
2023-04-01T00:38:33.789Z,0
2023-04-01T00:39:34.618Z,0
2023-04-01T00:40:35.110Z,0
2023-04-01T00:41:35.607Z,0
2023-04-01T00:42:36.324Z,0
2023-04-01T00:43:37.112Z,0
2023-04-01T00:44:37.834Z,0
2023-04-01T00:45:38.979Z,0
2023-04-01T00:46:38.864Z,0
2023-04-01T00:47:39.635Z,0
2023-04-01T00:48:40.032Z,0
2023-04-01T00:49:40.686Z,0
2023-04-01T00:50:40.980Z,0
2023-04-01T00:51:41.469Z,0
2023-04-01T00:52:42.168Z,0
2023-04-01T00:53:42.904Z,0
2023-04-01T00:54:43.643Z,0
2023-04-01T00:55:44.429Z,0
2023-04-01T00:56:44.282Z,0
2023-04-01T00:57:45.205Z,0
2023-04-01T00:58:45.942Z,0
2023-04-01T00:59:46.491Z,0
2023-04-01T01:00:47.527Z,0
2023-04-01T01:01:47.659Z,0
2023-04-01T01:02:49.239Z,0
2023-04-01T01:03:48.871Z,0
2023-04-01T01:04:49.179Z,0
2023-04-01T01:05:59.890Z,0
2023-04-01T01:07:50.636Z,0
2023-04-01T01:08:51.391Z,0
2023-04-01T01:09:51.840Z,0
2023-04-01T01:10:52.763Z,0
2023-04-01T01:11:54.979Z,0
2023-04-01T01:12:53.470Z,0
2023-04-01T01:13:54.187Z,0
2023-04-01T01:14:54.459Z,0
2023-04-01T01:15:55.351Z,0
2023-04-01T01:16:56.147Z,0
2023-04-01T01:17:56.939Z,0
2023-04-01T01:18:58.258Z,0
2023-04-01T01:19:58.488Z,0
2023-04-01T01:20:59.508Z,0
2023-04-01T01:21:59.415Z,0
2023-04-01T01:23:00.129Z,0
2023-04-01T01:24:01.294Z,0
2023-04-01T01:25:01.241Z,0
2023-04-01T01:26:02.358Z,0
2023-04-01T01:27:03.063Z,0
2023-04-01T01:28:03.972Z,0
2023-04-01T01:29:04.653Z,0
2023-04-01T01:30:05.276Z,0
2023-04-01T01:31:05.683Z,0
2023-04-01T01:32:06.342Z,0
2023-04-01T01:33:07.361Z,0
2023-04-01T01:34:07.472Z,0
2023-04-01T01:35:08.425Z,0
2023-04-01T01:36:08.737Z,0
2023-04-01T01:37:08.475Z,0
2023-04-01T01:38:09.008Z,0
2023-04-01T01:39:09.602Z,0
2023-04-01T01:40:10.295Z,0
2023-04-01T01:41:10.788Z,0
2023-04-01T01:42:11.534Z,0
2023-04-01T01:43:12.066Z,0
2023-04-01T01:44:13.220Z,0
2023-04-01T01:45:13.856Z,0
2023-04-01T01:46:14.901Z,0
2023-04-01T01:47:15.321Z,0
2023-04-01T01:48:16.500Z,0
2023-04-01T01:49:16.624Z,0
2023-04-01T01:50:17.286Z,0
2023-04-01T01:51:18.415Z,0
2023-04-01T01:52:19.135Z,0
2023-04-01T01:53:19.897Z,0
2023-04-01T01:54:20.853Z,0
2023-04-01T01:55:21.004Z,0
2023-04-01T01:56:20.944Z,0
2023-04-01T01:57:21.679Z,0
2023-04-01T01:58:22.254Z,0
2023-04-01T01:59:23.168Z,0
2023-04-01T02:00:24.031Z,0
2023-04-01T02:01:24.290Z,0
2023-04-01T02:02:23.855Z,0
2023-04-01T02:03:24.806Z,0
2023-04-01T02:04:25.770Z,0
2023-04-01T02:05:26.557Z,0
2023-04-01T02:06:26.914Z,0
2023-04-01T02:07:27.637Z,0
2023-04-01T02:08:27.942Z,0
2023-04-01T02:09:28.915Z,0
2023-04-01T02:10:29.750Z,0
2023-04-01T02:11:30.037Z,0
2023-04-01T02:12:30.933Z,0
2023-04-01T02:13:31.418Z,0
2023-04-01T02:14:32.322Z,0
2023-04-01T02:15:33.189Z,0
2023-04-01T02:16:34.521Z,0
2023-04-01T02:17:34.073Z,0
2023-04-01T02:18:34.854Z,0
2023-04-01T02:19:35.346Z,0
2023-04-01T02:20:36.586Z,0
2023-04-01T02:21:37.338Z,0
2023-04-01T02:22:37.861Z,0
2023-04-01T02:23:38.170Z,0
2023-04-01T02:24:38.931Z,0
2023-04-01T02:25:40.691Z,0
2023-04-01T02:26:40.075Z,0
2023-04-01T02:27:40.565Z,0
2023-04-01T02:28:41.477Z,0
2023-04-01T02:29:42.187Z,0
2023-04-01T02:30:43.000Z,0
2023-04-01T02:31:44.226Z,0
2023-04-01T02:32:45.104Z,0
2023-04-01T02:33:45.533Z,0
2023-04-01T02:34:46.660Z,0
2023-04-01T02:35:46.741Z,0
2023-04-01T02:36:47.486Z,0
2023-04-01T02:37:51.228Z,0
2023-04-01T02:38:48.515Z,0
2023-04-01T02:39:49.479Z,0
2023-04-01T02:40:50.264Z,0
2023-04-01T02:41:50.746Z,0
2023-04-01T02:42:51.435Z,0
2023-04-01T02:43:52.348Z,0
2023-04-01T02:44:53.415Z,0
2023-04-01T02:45:54.132Z,0
2023-04-01T02:46:54.878Z,0
2023-04-01T02:47:55.140Z,0
2023-04-01T02:48:55.901Z,0
2023-04-01T02:49:56.862Z,0
2023-04-01T02:50:57.135Z,0
2023-04-01T02:51:57.646Z,0
2023-04-01T02:52:58.146Z,0
2023-04-01T02:53:58.716Z,0
2023-04-01T02:54:59.446Z,0
2023-04-01T02:56:00.164Z,0
2023-04-01T02:57:01.275Z,0
2023-04-01T02:58:00.864Z,0
2023-04-01T02:59:01.587Z,0
2023-04-01T03:00:02.104Z,0
2023-04-01T03:01:02.549Z,0
2023-04-01T03:02:03.121Z,0
2023-04-01T03:03:04.251Z,0
2023-04-01T03:04:04.051Z,0
2023-04-01T03:05:04.966Z,0
2023-04-01T03:06:05.908Z,0
2023-04-01T03:07:06.605Z,0
2023-04-01T03:08:07.310Z,0
2023-04-01T03:09:07.812Z,0
2023-04-01T03:10:08.740Z,0
2023-04-01T03:11:11.434Z,0
2023-04-01T03:12:10.308Z,0
2023-04-01T03:13:11.084Z,0
2023-04-01T03:14:11.961Z,0
2023-04-01T03:15:22.490Z,0
2023-04-01T03:17:13.843Z,0
2023-04-01T03:18:13.496Z,0
2023-04-01T03:19:14.285Z,0
2023-04-01T03:20:15.203Z,0
2023-04-01T03:21:15.813Z,0
2023-04-01T03:22:16.495Z,0
2023-04-01T03:23:17.401Z,0
2023-04-01T03:24:17.710Z,0
2023-04-01T03:25:18.303Z,0
2023-04-01T03:26:19.216Z,0
2023-04-01T03:27:20.150Z,0
2023-04-01T03:28:20.945Z,0
2023-04-01T03:29:20.856Z,0
2023-04-01T03:30:21.702Z,0
2023-04-01T03:31:23.804Z,0
2023-04-01T03:32:22.795Z,0
2023-04-01T03:33:23.563Z,0
2023-04-01T03:34:24.655Z,0
2023-04-01T03:35:25.167Z,0
2023-04-01T03:36:25.679Z,0
2023-04-01T03:37:25.490Z,0
2023-04-01T03:38:26.376Z,0
2023-04-01T03:39:26.473Z,0
2023-04-01T03:40:27.022Z,0
2023-04-01T03:41:27.251Z,0
2023-04-01T03:42:28.160Z,0
2023-04-01T03:43:29.363Z,0
2023-04-01T03:44:29.682Z,0
2023-04-01T03:45:30.802Z,0
2023-04-01T03:46:31.025Z,0
2023-04-01T03:47:31.029Z,0
2023-04-01T03:48:32.156Z,0
2023-04-01T03:49:32.680Z,0
2023-04-01T03:50:34.901Z,0
2023-04-01T03:52:34.038Z,0
2023-04-01T03:53:34.518Z,0
2023-04-01T03:54:35.207Z,0
2023-04-01T03:55:36.561Z,0
2023-04-01T03:56:36.283Z,0
2023-04-01T03:57:37.121Z,0
2023-04-01T03:58:37.661Z,0
2023-04-01T03:59:38.008Z,0
2023-04-01T04:00:38.716Z,0
2023-04-01T04:01:39.124Z,0
2023-04-01T04:02:40.219Z,0
2023-04-01T04:03:41.698Z,0
2023-04-01T04:04:41.742Z,0
2023-04-01T04:05:42.901Z,0
2023-04-01T04:06:43.211Z,0
2023-04-01T04:07:43.913Z,0
2023-04-01T04:08:44.201Z,0
2023-04-01T04:09:45.298Z,0
2023-04-01T04:10:45.457Z,0
2023-04-01T04:11:45.857Z,0
2023-04-01T04:12:46.566Z,0
2023-04-01T04:13:47.273Z,0
2023-04-01T04:14:48.398Z,0
2023-04-01T04:15:49.019Z,0
2023-04-01T04:16:49.766Z,0
2023-04-01T04:17:50.838Z,0
2023-04-01T04:18:51.157Z,0
2023-04-01T04:19:52.149Z,0
2023-04-01T04:20:52.914Z,0
2023-04-01T04:21:53.482Z,0
2023-04-01T04:22:54.048Z,0
2023-04-01T04:23:54.625Z,0
2023-04-01T04:24:55.353Z,0
2023-04-01T04:25:56.314Z,0
2023-04-01T04:26:57.361Z,0
2023-04-01T04:27:58.101Z,0
2023-04-01T04:28:59.064Z,0
2023-04-01T04:30:00.267Z,0
2023-04-01T04:31:00.762Z,0
2023-04-01T04:32:01.630Z,0
2023-04-01T04:33:02.470Z,0
2023-04-01T04:34:02.144Z,0
2023-04-01T04:35:02.688Z,0
2023-04-01T04:36:03.551Z,0
2023-04-01T04:37:03.525Z,0
2023-04-01T04:38:04.201Z,4
2023-04-01T04:39:04.143Z,0
2023-04-01T04:40:04.848Z,4
2023-04-01T04:41:06.040Z,4
2023-04-01T04:42:06.496Z,0
2023-04-01T04:43:07.182Z,4
2023-04-01T04:44:07.890Z,4
2023-04-01T04:45:08.393Z,4
2023-04-01T04:46:09.357Z,4
2023-04-01T04:47:10.523Z,8
2023-04-01T04:48:10.810Z,4
2023-04-01T04:49:11.319Z,8
2023-04-01T04:50:12.237Z,12
2023-04-01T04:51:13.370Z,12
2023-04-01T04:52:14.170Z,16
2023-04-01T04:53:14.875Z,16
2023-04-01T04:54:15.938Z,16
2023-04-01T04:55:16.141Z,24
2023-04-01T04:56:17.135Z,24
2023-04-01T04:57:17.250Z,24
2023-04-01T04:58:17.014Z,28
2023-04-01T04:59:17.935Z,32
2023-04-01T05:00:18.823Z,36
2023-04-01T05:01:20.192Z,36
2023-04-01T05:02:20.689Z,44
2023-04-01T05:03:21.406Z,48
2023-04-01T05:04:21.692Z,52
2023-04-01T05:05:22.399Z,56
2023-04-01T05:06:23.703Z,60
2023-04-01T05:07:23.947Z,60
2023-04-01T05:08:23.728Z,68
2023-04-01T05:09:24.035Z,72
2023-04-01T05:10:24.338Z,76
2023-04-01T05:11:25.874Z,80
2023-04-01T05:12:26.812Z,80
2023-04-01T05:13:27.714Z,88
2023-04-01T05:14:28.416Z,92
2023-04-01T05:15:29.096Z,96
2023-04-01T05:16:29.215Z,104
2023-04-01T05:17:30.220Z,116
2023-04-01T05:18:31.064Z,116
2023-04-01T05:19:31.748Z,124
2023-04-01T05:20:32.489Z,132
2023-04-01T05:21:33.213Z,140
2023-04-01T05:22:33.676Z,152
2023-04-01T05:23:34.475Z,160
2023-04-01T05:24:34.970Z,168
2023-04-01T05:25:36.156Z,172
2023-04-01T05:26:36.119Z,180
2023-04-01T05:27:36.055Z,188
2023-04-01T05:28:36.750Z,196
2023-04-01T05:29:37.658Z,200
2023-04-01T05:30:37.800Z,204
2023-04-01T05:31:38.784Z,216
2023-04-01T05:32:39.538Z,224
2023-04-01T05:33:39.778Z,236
2023-04-01T05:34:41.285Z,244
2023-04-01T05:35:42.752Z,240
2023-04-01T05:36:42.811Z,244
2023-04-01T05:37:43.627Z,252
2023-04-01T05:38:43.935Z,260
2023-04-01T05:39:44.638Z,272
2023-04-01T05:40:45.702Z,280
2023-04-01T05:41:46.585Z,288
2023-04-01T05:42:49.056Z,300
2023-04-01T05:43:47.799Z,312
2023-04-01T05:44:48.329Z,308
2023-04-01T05:45:48.858Z,312
2023-04-01T05:46:49.780Z,324
2023-04-01T05:47:49.149Z,328
2023-04-01T05:48:49.940Z,344
2023-04-01T05:49:50.867Z,352
2023-04-01T05:50:51.388Z,356
2023-04-01T05:51:52.095Z,368
2023-04-01T05:52:52.758Z,376
2023-04-01T05:53:53.301Z,376
2023-04-01T05:54:53.793Z,384
2023-04-01T05:55:54.502Z,396
2023-04-01T05:56:57.028Z,408
2023-04-01T05:57:55.957Z,404
2023-04-01T05:58:56.659Z,416
2023-04-01T05:59:57.563Z,440
2023-04-01T06:01:16.701Z,468
2023-04-01T06:03:00.437Z,504
2023-04-01T06:04:00.643Z,528
2023-04-01T06:05:00.797Z,560
2023-04-01T06:06:01.483Z,600
2023-04-01T06:07:02.005Z,628
2023-04-01T06:08:02.894Z,656
2023-04-01T06:09:03.604Z,704
2023-04-01T06:10:04.129Z,748
2023-04-01T06:11:04.643Z,788
2023-04-01T06:12:05.433Z,820
2023-04-01T06:13:05.009Z,848
2023-04-01T06:14:05.517Z,880
2023-04-01T06:15:06.206Z,940
2023-04-01T06:16:06.861Z,1036
2023-04-01T06:17:07.399Z,1096
2023-04-01T06:18:08.544Z,1080
2023-04-01T06:19:08.544Z,1044
2023-04-01T06:20:09.387Z,1096
2023-04-01T06:21:09.691Z,1344
2023-04-01T06:22:10.223Z,1384
2023-04-01T06:23:10.690Z,1344
2023-04-01T06:24:11.602Z,1424
2023-04-01T06:25:12.190Z,1832
2023-04-01T06:26:12.905Z,2676
2023-04-01T06:27:13.495Z,3912
2023-04-01T06:28:14.914Z,3324
2023-04-01T06:29:14.851Z,4388
2023-04-01T06:30:15.375Z,5720
2023-04-01T06:31:16.499Z,3892
2023-04-01T06:32:17.179Z,3584
2023-04-01T06:33:17.555Z,4216
2023-04-01T06:34:18.238Z,1968
2023-04-01T06:35:18.174Z,5348
2023-04-01T06:36:19.333Z,3976
2023-04-01T06:37:20.122Z,1488
2023-04-01T06:38:20.998Z,1460
2023-04-01T06:39:22.727Z,4008
2023-04-01T06:40:21.880Z,1460
2023-04-01T06:41:22.582Z,1136
2023-04-01T06:42:23.540Z,1296
2023-04-01T06:43:24.614Z,2064
2023-04-01T06:44:24.500Z,1300
2023-04-01T06:45:26.035Z,1220
2023-04-01T06:46:25.697Z,1208
2023-04-01T06:47:26.494Z,1076
2023-04-01T06:48:26.711Z,908
2023-04-01T06:49:27.601Z,888
2023-04-01T06:50:27.907Z,928
2023-04-01T06:51:28.456Z,800
2023-04-01T06:52:29.377Z,804
2023-04-01T06:53:30.561Z,764
2023-04-01T06:54:31.075Z,704
2023-04-01T06:55:34.145Z,752
2023-04-01T06:56:31.886Z,788
2023-04-01T06:57:32.640Z,676
2023-04-01T06:58:33.410Z,672
2023-04-01T06:59:34.302Z,812
2023-04-01T07:00:34.822Z,944
2023-04-01T07:01:35.790Z,972
2023-04-01T07:02:36.219Z,1004
2023-04-01T07:03:36.878Z,1028
2023-04-01T07:04:37.797Z,1108
2023-04-01T07:05:38.573Z,1192
2023-04-01T07:06:38.463Z,1272
2023-04-01T07:07:39.207Z,1416
2023-04-01T07:08:40.127Z,5256
2023-04-01T07:09:40.646Z,5456
2023-04-01T07:10:41.146Z,9824
2023-04-01T07:11:41.880Z,9424
2023-04-01T07:12:43.087Z,8964
2023-04-01T07:13:43.182Z,8136
2023-04-01T07:14:43.947Z,9184
2023-04-01T07:15:45.121Z,6908
2023-04-01T07:16:44.952Z,8560
2023-04-01T07:17:45.683Z,4820
2023-04-01T07:18:48.879Z,4944
2023-04-01T07:19:46.836Z,9756
2023-04-01T07:20:47.506Z,2268
2023-04-01T07:21:48.410Z,10644
2023-04-01T07:22:49.188Z,2136
2023-04-01T07:23:49.866Z,8936
2023-04-01T07:24:50.430Z,4092
2023-04-01T07:25:51.474Z,2880
2023-04-01T07:26:52.330Z,2612
2023-04-01T07:27:52.561Z,7188
2023-04-01T07:28:52.269Z,8720
2023-04-01T07:29:52.960Z,2064
2023-04-01T07:30:53.834Z,2200
2023-04-01T07:31:55.077Z,9220
2023-04-01T07:32:55.346Z,9564
2023-04-01T07:33:54.876Z,2372
2023-04-01T07:34:55.600Z,2792
2023-04-01T07:35:56.242Z,2400
2023-04-01T07:36:56.939Z,1928
2023-04-01T07:37:57.661Z,10884
2023-04-01T07:38:57.929Z,7712
2023-04-01T07:39:58.877Z,2576
2023-04-01T07:40:59.416Z,10700
2023-04-01T07:42:00.354Z,9128
2023-04-01T07:43:00.976Z,7976
2023-04-01T07:44:01.312Z,1900
2023-04-01T07:45:02.203Z,11092
2023-04-01T07:46:02.676Z,7916
2023-04-01T07:47:03.668Z,1892
2023-04-01T07:48:04.604Z,1476
2023-04-01T07:49:05.131Z,11740
2023-04-01T07:50:05.649Z,11416
2023-04-01T07:51:06.353Z,5104
2023-04-01T07:52:07.066Z,2508
2023-04-01T07:53:08.047Z,12044
2023-04-01T07:54:08.508Z,2240
2023-04-01T07:55:09.228Z,11132
2023-04-01T07:56:11.464Z,2076
2023-04-01T07:57:10.628Z,5328
2023-04-01T07:58:11.495Z,11172
2023-04-01T07:59:12.469Z,10340
2023-04-01T08:00:12.954Z,10652
2023-04-01T08:01:13.667Z,9936
2023-04-01T08:02:14.177Z,11140
2023-04-01T08:03:15.674Z,2036
2023-04-01T08:04:16.675Z,10320
2023-04-01T08:05:16.159Z,10352
2023-04-01T08:06:16.714Z,10140
2023-04-01T08:07:17.414Z,9600
2023-04-01T08:08:18.161Z,8248
2023-04-01T08:09:18.922Z,10428
2023-04-01T08:10:19.440Z,9784
2023-04-01T08:11:19.960Z,12600
2023-04-01T08:12:20.480Z,9740
2023-04-01T08:13:21.649Z,15000
2023-04-01T08:14:22.508Z,13164
2023-04-01T08:15:23.241Z,2324
2023-04-01T08:16:24.269Z,14872
2023-04-01T08:17:25.059Z,14512
2023-04-01T08:18:25.870Z,14664
2023-04-01T08:19:26.839Z,3224
2023-04-01T08:20:26.742Z,9004
2023-04-01T08:21:27.700Z,4076
2023-04-01T08:22:28.202Z,1960
2023-04-01T08:23:29.478Z,11624
2023-04-01T08:24:47.888Z,14064
2023-04-01T08:25:29.868Z,13416
2023-04-01T08:26:30.621Z,12204
2023-04-01T08:27:30.916Z,11108
2023-04-01T08:28:31.682Z,9648
2023-04-01T08:29:32.427Z,8524
2023-04-01T08:30:33.298Z,8916
2023-04-01T08:31:33.950Z,9252
2023-04-01T08:32:35.342Z,2328
2023-04-01T08:33:35.413Z,7468
2023-04-01T08:34:35.878Z,2548
2023-04-01T08:35:41.091Z,12676
2023-04-01T08:36:37.006Z,13388
2023-04-01T08:37:37.545Z,2608
2023-04-01T08:38:38.112Z,11604
2023-04-01T08:39:39.109Z,1892
2023-04-01T08:40:39.815Z,2200
2023-04-01T08:41:40.133Z,6724
2023-04-01T08:42:40.842Z,4796
2023-04-01T08:43:41.598Z,9936
2023-04-01T08:44:42.043Z,2684
2023-04-01T08:45:43.769Z,3160
2023-04-01T08:46:43.372Z,5432
2023-04-01T08:47:44.742Z,2796
2023-04-01T08:48:44.735Z,7928
2023-04-01T08:49:45.453Z,7396
2023-04-01T08:50:46.599Z,7452
2023-04-01T08:51:47.121Z,6224
2023-04-01T08:52:47.404Z,3356
2023-04-01T08:53:48.332Z,2876
2023-04-01T08:54:48.982Z,3236
2023-04-01T08:55:49.705Z,5772
2023-04-01T08:56:50.275Z,5680
2023-04-01T08:57:51.625Z,6684
2023-04-01T08:58:52.058Z,4068
2023-04-01T08:59:52.989Z,2676
2023-04-01T09:00:54.129Z,2520
2023-04-01T09:01:53.790Z,8780
2023-04-01T09:02:54.604Z,8576
2023-04-01T09:03:56.190Z,6924
2023-04-01T09:05:56.611Z,3108
2023-04-01T09:06:57.528Z,8568
2023-04-01T09:07:58.428Z,2520
2023-04-01T09:08:59.165Z,2176
2023-04-01T09:09:59.942Z,2368
2023-04-01T09:11:00.459Z,2664
2023-04-01T09:12:03.101Z,2512
2023-04-01T09:13:00.914Z,2400
2023-04-01T09:14:01.884Z,1924
2023-04-01T09:15:02.734Z,1732
2023-04-01T09:16:03.621Z,1968
2023-04-01T09:17:04.205Z,2444
2023-04-01T09:18:05.314Z,3732
2023-04-01T09:19:05.508Z,2820
2023-04-01T09:20:05.670Z,2864
2023-04-01T09:21:06.173Z,3984
2023-04-01T09:22:06.714Z,4680
2023-04-01T09:23:07.255Z,3392
2023-04-01T09:24:07.976Z,12776
2023-04-01T09:25:09.226Z,4360
2023-04-01T09:26:09.787Z,4460
2023-04-01T09:27:10.651Z,5264
2023-04-01T09:28:11.358Z,3368
2023-04-01T09:29:12.361Z,3216
2023-04-01T09:30:13.368Z,3136
2023-04-01T09:31:14.114Z,2984
2023-04-01T09:32:13.817Z,2768
2023-04-01T09:33:14.719Z,2568
2023-04-01T09:34:15.305Z,2496
2023-04-01T09:35:15.798Z,2520
2023-04-01T09:36:16.477Z,2604
2023-04-01T09:37:16.039Z,2648
2023-04-01T09:38:16.948Z,2740
2023-04-01T09:39:16.688Z,3028
2023-04-01T09:40:17.645Z,3268
2023-04-01T09:41:18.129Z,3120
2023-04-01T09:42:18.828Z,2600
2023-04-01T09:43:19.724Z,2352
2023-04-01T09:44:20.503Z,2200
2023-04-01T09:45:20.968Z,2092
2023-04-01T09:46:21.852Z,2012
2023-04-01T09:47:23.254Z,2028
2023-04-01T09:48:23.010Z,2084
2023-04-01T09:49:24.057Z,2140
2023-04-01T09:50:24.860Z,2172
2023-04-01T09:51:25.368Z,2176
2023-04-01T09:52:25.873Z,2200
2023-04-01T09:53:26.979Z,2264
2023-04-01T09:54:26.936Z,2536
2023-04-01T09:55:27.896Z,2640
2023-04-01T09:56:28.112Z,2544
2023-04-01T09:57:29.015Z,2568
2023-04-01T09:58:29.774Z,2776
2023-04-01T09:59:30.264Z,2732
2023-04-01T10:00:31.236Z,3120
2023-04-01T10:01:32.551Z,5596
2023-04-01T10:02:32.368Z,3848
2023-04-01T10:03:35.367Z,3236
2023-04-01T10:04:33.265Z,3032
2023-04-01T10:05:34.131Z,3204
2023-04-01T10:06:33.832Z,3392
2023-04-01T10:07:34.771Z,3128
2023-04-01T10:08:35.511Z,3012
2023-04-01T10:09:36.226Z,3128
2023-04-01T10:10:37.017Z,3136
2023-04-01T10:11:37.327Z,2772
2023-04-01T10:12:38.500Z,3060
2023-04-01T10:13:38.798Z,2632
2023-04-01T10:14:39.536Z,2744
2023-04-01T10:15:41.210Z,2908
2023-04-01T10:16:40.851Z,2808
2023-04-01T10:17:42.081Z,2164
2023-04-01T10:18:42.630Z,2012
2023-04-01T10:19:42.937Z,2100
2023-04-01T10:20:43.224Z,2192
2023-04-01T10:21:44.365Z,2156
2023-04-01T10:22:44.881Z,1884
2023-04-01T10:23:45.397Z,1736
2023-04-01T10:24:45.722Z,1740
2023-04-01T10:25:46.768Z,1704
2023-04-01T10:26:46.691Z,1776
2023-04-01T10:27:47.654Z,1680
2023-04-01T10:28:48.360Z,1524
2023-04-01T10:29:49.126Z,1488
2023-04-01T10:30:49.851Z,1624
2023-04-01T10:31:50.859Z,1676
2023-04-01T10:32:50.785Z,1720
2023-04-01T10:33:51.761Z,1776
2023-04-01T10:34:52.829Z,1740
2023-04-01T10:35:53.236Z,1680
2023-04-01T10:36:54.246Z,1544
2023-04-01T10:37:55.167Z,1440
2023-04-01T10:38:55.909Z,1436
2023-04-01T10:39:56.262Z,1560
2023-04-01T10:40:57.187Z,1736
2023-04-01T10:41:57.921Z,1740
2023-04-01T10:42:58.288Z,1720
2023-04-01T10:43:58.826Z,1712
2023-04-01T10:44:59.601Z,1684
2023-04-01T10:46:00.043Z,1668
2023-04-01T10:46:59.845Z,1684
2023-04-01T10:48:00.738Z,1660
2023-04-01T10:49:01.737Z,1636
2023-04-01T10:50:02.533Z,1544
2023-04-01T10:51:03.082Z,1568
2023-04-01T10:52:03.605Z,1724
2023-04-01T10:53:06.080Z,1964
2023-04-01T10:54:04.841Z,2124
2023-04-01T10:55:05.556Z,2028
2023-04-01T10:56:06.375Z,1844
2023-04-01T10:57:06.847Z,1744
2023-04-01T10:58:07.681Z,1732
2023-04-01T10:59:08.224Z,1764
2023-04-01T11:00:09.200Z,1632
2023-04-01T11:01:09.615Z,1500
2023-04-01T11:02:21.433Z,1608
2023-04-01T11:04:11.219Z,2080
2023-04-01T11:05:11.487Z,2036
2023-04-01T11:06:12.538Z,1960
2023-04-01T11:07:13.704Z,2044
2023-04-01T11:08:17.630Z,2124
2023-04-01T11:09:14.734Z,2208
2023-04-01T11:10:15.763Z,2300
2023-04-01T11:11:15.888Z,2364
2023-04-01T11:12:16.232Z,2076
2023-04-01T11:13:16.962Z,1940
2023-04-01T11:14:17.877Z,1916
2023-04-01T11:15:18.882Z,1828
2023-04-01T11:16:19.698Z,1968
2023-04-01T11:17:19.430Z,1988
2023-04-01T11:18:20.055Z,1912
2023-04-01T11:19:20.881Z,1872
2023-04-01T11:20:21.810Z,1856
2023-04-01T11:21:23.485Z,1768
2023-04-01T11:22:22.642Z,1660
2023-04-01T11:23:23.145Z,1564
2023-04-01T11:24:23.964Z,1472
2023-04-01T11:25:24.688Z,1372
2023-04-01T11:26:25.227Z,1296
2023-04-01T11:28:26.254Z,1272
2023-04-01T11:29:27.161Z,1260
2023-04-01T11:30:27.728Z,1244
2023-04-01T11:31:28.802Z,1284
2023-04-01T11:32:28.748Z,1260
2023-04-01T11:33:31.812Z,1200
2023-04-01T11:34:29.701Z,1204
2023-04-01T11:35:30.397Z,1308
2023-04-01T11:36:30.376Z,1456
2023-04-01T11:37:31.117Z,1624
2023-04-01T11:38:32.041Z,1728
2023-04-01T11:39:32.768Z,1812
2023-04-01T11:40:33.698Z,1824
2023-04-01T11:41:34.634Z,1872
2023-04-01T11:42:35.433Z,1792
2023-04-01T11:43:44.107Z,1652
2023-04-01T11:45:38.248Z,1572
2023-04-01T11:47:38.983Z,1484
2023-04-01T11:48:39.727Z,1348
2023-04-01T11:49:40.540Z,1316
2023-04-01T11:50:40.882Z,1248
2023-04-01T11:51:41.179Z,1188
2023-04-01T11:52:41.931Z,1196
2023-04-01T11:53:42.643Z,1184
2023-04-01T11:54:43.177Z,1188
2023-04-01T11:55:44.251Z,1176
2023-04-01T11:56:45.164Z,1232
2023-04-01T11:57:46.083Z,1276
2023-04-01T11:58:46.585Z,1372
2023-04-01T11:59:47.289Z,1460
2023-04-01T12:00:47.845Z,1508
2023-04-01T12:01:48.749Z,1536
2023-04-01T12:02:50.006Z,1536
2023-04-01T12:03:50.570Z,1492
2023-04-01T12:04:50.911Z,1432
2023-04-01T12:05:50.996Z,1392
2023-04-01T12:06:51.904Z,1400
2023-04-01T12:07:51.896Z,1436
2023-04-01T12:08:53.110Z,1488
2023-04-01T12:09:53.411Z,1464
2023-04-01T12:10:54.550Z,1412
2023-04-01T12:11:55.061Z,1352
2023-04-01T12:13:08.967Z,1308
2023-04-01T12:14:56.721Z,1272
2023-04-01T12:15:57.473Z,1232
2023-04-01T12:16:58.117Z,1164
2023-04-01T12:17:58.506Z,1092
2023-04-01T12:18:58.836Z,1076
2023-04-01T12:19:58.722Z,1100
2023-04-01T12:20:59.437Z,1144
2023-04-01T12:22:00.153Z,1144
2023-04-01T12:23:00.687Z,1072
2023-04-01T12:24:00.987Z,1032
2023-04-01T12:25:01.923Z,996
2023-04-01T12:26:02.895Z,976
2023-04-01T12:27:03.439Z,1016
2023-04-01T12:28:04.160Z,1032
2023-04-01T12:29:04.894Z,1004
2023-04-01T12:30:05.422Z,956
2023-04-01T12:31:06.066Z,956
2023-04-01T12:32:07.339Z,972
2023-04-01T12:34:08.178Z,964
2023-04-01T12:35:08.675Z,940
2023-04-01T12:36:08.950Z,924
2023-04-01T12:37:09.273Z,896
2023-04-01T12:38:09.981Z,884
2023-04-01T12:39:10.921Z,884
2023-04-01T12:40:11.613Z,900
2023-04-01T12:41:12.554Z,908
2023-04-01T12:42:13.708Z,896
2023-04-01T12:43:13.196Z,880
2023-04-01T12:44:14.111Z,872
2023-04-01T12:45:14.103Z,844
2023-04-01T12:46:15.316Z,828
2023-04-01T12:47:16.080Z,832
2023-04-01T12:48:16.868Z,884
2023-04-01T12:49:17.763Z,912
2023-04-01T12:50:18.274Z,924
2023-04-01T12:51:18.805Z,916
2023-04-01T12:52:19.697Z,876
2023-04-01T12:53:20.201Z,840
2023-04-01T12:54:20.689Z,832
2023-04-01T12:55:21.425Z,820
2023-04-01T12:56:22.128Z,824
2023-04-01T12:57:23.280Z,828
2023-04-01T12:58:23.492Z,876
2023-04-01T12:59:24.431Z,896
2023-04-01T13:00:24.969Z,904
2023-04-01T13:01:25.793Z,932
2023-04-01T13:02:25.968Z,944
2023-04-01T13:03:25.938Z,932
2023-04-01T13:04:27.051Z,904
2023-04-01T13:05:27.351Z,888
2023-04-01T13:06:31.904Z,868
2023-04-01T13:07:28.422Z,868
2023-04-01T13:08:28.939Z,860
2023-04-01T13:09:29.308Z,856
2023-04-01T13:10:30.009Z,840
2023-04-01T13:11:31.064Z,808
2023-04-01T13:12:32.141Z,768
2023-04-01T13:13:32.147Z,732
2023-04-01T13:14:41.960Z,716
2023-04-01T13:16:33.198Z,724
2023-04-01T13:17:34.063Z,740
2023-04-01T13:18:35.031Z,752
2023-04-01T13:19:36.135Z,808
2023-04-01T13:20:37.493Z,852
2023-04-01T13:21:37.980Z,848
2023-04-01T13:22:38.244Z,848
2023-04-01T13:23:38.331Z,852
2023-04-01T13:24:39.046Z,804
2023-04-01T13:25:39.732Z,792
2023-04-01T13:26:40.656Z,840
2023-04-01T13:27:41.128Z,844
2023-04-01T13:28:44.562Z,840
2023-04-01T13:29:42.475Z,860
2023-04-01T13:30:43.405Z,884
2023-04-01T13:31:44.737Z,876
2023-04-01T13:32:51.937Z,880
2023-04-01T13:34:46.341Z,892
2023-04-01T13:35:47.528Z,852
2023-04-01T13:36:47.700Z,884
2023-04-01T13:37:48.501Z,860
2023-04-01T13:38:48.981Z,828
2023-04-01T13:39:49.701Z,848
2023-04-01T13:41:09.451Z,868
2023-04-01T13:41:50.792Z,856
2023-04-01T13:42:52.697Z,840
2023-04-01T13:43:51.224Z,820
2023-04-01T13:44:51.736Z,812
2023-04-01T13:45:52.257Z,824
2023-04-01T13:46:53.304Z,824
2023-04-01T13:47:53.336Z,776
2023-04-01T13:48:53.249Z,696
2023-04-01T13:49:53.789Z,692
2023-04-01T13:50:54.302Z,668
2023-04-01T13:51:55.332Z,672
2023-04-01T13:52:56.072Z,740
2023-04-01T13:53:56.788Z,820
2023-04-01T13:54:57.989Z,848
2023-04-01T13:55:57.693Z,856
2023-04-01T13:56:59.058Z,864
2023-04-01T13:57:58.697Z,876
2023-04-01T13:58:59.390Z,908
2023-04-01T14:00:00.106Z,948
2023-04-01T14:01:00.743Z,988
2023-04-01T14:02:01.571Z,1028
2023-04-01T14:03:05.813Z,1020
2023-04-01T14:04:03.017Z,976
2023-04-01T14:05:03.561Z,968
2023-04-01T14:06:04.475Z,952
2023-04-01T14:07:05.391Z,896
2023-04-01T14:08:06.270Z,892
2023-04-01T14:09:06.156Z,896
2023-04-01T14:10:06.870Z,892
2023-04-01T14:11:07.146Z,952
2023-04-01T14:12:07.675Z,968
2023-04-01T14:13:08.800Z,908
2023-04-01T14:14:08.503Z,824
2023-04-01T14:15:08.978Z,772
2023-04-01T14:16:10.136Z,744